sensor_id;sensor_type;location;lat;lon;timestamp;pressure;altitude;pressure_sealevel;temperature;humidity
24486;BME280;13449;49.374;8.584;2023-07-29T00:02:03;99967.09;;;17.36;100.00
24486;BME280;13449;49.374;8.584;2023-07-29T00:04:31;99970.91;;;17.34;100.00
24486;BME280;13449;49.374;8.584;2023-07-29T00:06:57;99972.09;;;17.31;100.00
24486;BME280;13449;49.374;8.584;2023-07-29T00:09:24;99964.91;;;17.40;100.00
24486;BME280;13449;49.374;8.584;2023-07-29T00:11:51;99965.94;;;17.39;100.00
24486;BME280;13449;49.374;8.584;2023-07-29T00:14:18;99959.25;;;17.35;100.00
24486;BME280;13449;49.374;8.584;2023-07-29T00:16:44;99963.44;;;17.38;100.00
24486;BME280;13449;49.374;8.584;2023-07-29T00:19:14;99960.63;;;17.31;100.00
24486;BME280;13449;49.374;8.584;2023-07-29T00:21:40;99954.94;;;17.34;100.00
24486;BME280;13449;49.374;8.584;2023-07-29T00:24:07;99954.13;;;17.33;100.00
24486;BME280;13449;49.374;8.584;2023-07-29T00:26:33;99943.00;;;17.30;100.00
24486;BME280;13449;49.374;8.584;2023-07-29T00:29:01;99950.81;;;17.31;100.00
24486;BME280;13449;49.374;8.584;2023-07-29T00:31:27;99938.78;;;17.35;100.00
24486;BME280;13449;49.374;8.584;2023-07-29T00:33:54;99944.97;;;17.36;100.00
24486;BME280;13449;49.374;8.584;2023-07-29T00:36:20;99935.31;;;17.35;100.00
24486;BME280;13449;49.374;8.584;2023-07-29T00:38:46;99930.81;;;17.35;100.00
24486;BME280;13449;49.374;8.584;2023-07-29T00:41:13;99933.66;;;17.34;100.00
24486;BME280;13449;49.374;8.584;2023-07-29T00:43:40;99929.50;;;17.31;100.00
24486;BME280;13449;49.374;8.584;2023-07-29T00:46:08;99925.53;;;17.27;100.00
24486;BME280;13449;49.374;8.584;2023-07-29T00:48:36;99921.69;;;17.30;100.00
24486;BME280;13449;49.374;8.584;2023-07-29T00:51:03;99918.19;;;17.29;100.00
24486;BME280;13449;49.374;8.584;2023-07-29T00:53:29;99913.75;;;17.22;100.00
24486;BME280;13449;49.374;8.584;2023-07-29T00:55:56;99913.41;;;17.25;100.00
24486;BME280;13449;49.374;8.584;2023-07-29T00:58:22;99912.41;;;17.26;100.00
24486;BME280;13449;49.374;8.584;2023-07-29T01:00:50;99913.75;;;17.22;100.00
24486;BME280;13449;49.374;8.584;2023-07-29T01:03:17;99916.75;;;17.19;100.00
24486;BME280;13449;49.374;8.584;2023-07-29T01:09:01;99909.78;;;17.18;100.00
24486;BME280;13449;49.374;8.584;2023-07-29T01:14:07;99906.78;;;17.21;100.00
24486;BME280;13449;49.374;8.584;2023-07-29T01:16:42;99900.47;;;17.22;100.00
24486;BME280;13449;49.374;8.584;2023-07-29T01:19:42;99908.25;;;17.23;100.00
24486;BME280;13449;49.374;8.584;2023-07-29T01:22:11;99903.13;;;17.22;100.00
24486;BME280;13449;49.374;8.584;2023-07-29T01:24:39;99900.28;;;17.23;100.00
24486;BME280;13449;49.374;8.584;2023-07-29T01:27:05;99899.44;;;17.23;100.00
24486;BME280;13449;49.374;8.584;2023-07-29T01:29:32;99901.47;;;17.21;100.00
24486;BME280;13449;49.374;8.584;2023-07-29T01:32:06;99892.66;;;17.20;100.00
24486;BME280;13449;49.374;8.584;2023-07-29T01:34:41;99891.13;;;17.18;100.00
24486;BME280;13449;49.374;8.584;2023-07-29T01:37:12;99888.66;;;17.16;100.00
24486;BME280;13449;49.374;8.584;2023-07-29T01:39:42;99897.63;;;17.15;100.00
24486;BME280;13449;49.374;8.584;2023-07-29T01:42:11;99895.97;;;17.14;100.00
24486;BME280;13449;49.374;8.584;2023-07-29T01:44:38;99893.69;;;17.11;100.00
24486;BME280;13449;49.374;8.584;2023-07-29T01:47:06;99888.88;;;17.06;100.00
24486;BME280;13449;49.374;8.584;2023-07-29T01:49:33;99881.91;;;17.05;100.00
24486;BME280;13449;49.374;8.584;2023-07-29T01:51:59;99876.59;;;17.05;100.00
24486;BME280;13449;49.374;8.584;2023-07-29T01:54:28;99886.53;;;17.03;100.00
24486;BME280;13449;49.374;8.584;2023-07-29T01:56:55;99885.91;;;17.01;100.00
24486;BME280;13449;49.374;8.584;2023-07-29T01:59:21;99876.25;;;17.00;100.00
24486;BME280;13449;49.374;8.584;2023-07-29T02:01:50;99877.59;;;17.04;100.00
24486;BME280;13449;49.374;8.584;2023-07-29T02:04:17;99869.59;;;17.04;100.00
24486;BME280;13449;49.374;8.584;2023-07-29T02:06:43;99881.22;;;17.03;100.00
24486;BME280;13449;49.374;8.584;2023-07-29T02:09:10;99875.25;;;17.01;100.00
24486;BME280;13449;49.374;8.584;2023-07-29T02:11:39;99867.63;;;16.98;100.00
24486;BME280;13449;49.374;8.584;2023-07-29T02:14:05;99880.28;;;16.88;100.00
24486;BME280;13449;49.374;8.584;2023-07-29T02:16:35;99875.31;;;16.85;100.00
24486;BME280;13449;49.374;8.584;2023-07-29T02:19:04;99878.63;;;16.87;100.00
24486;BME280;13449;49.374;8.584;2023-07-29T02:21:30;99872.63;;;16.93;100.00
24486;BME280;13449;49.374;8.584;2023-07-29T02:23:57;99872.16;;;16.90;100.00
24486;BME280;13449;49.374;8.584;2023-07-29T02:26:23;99886.63;;;16.87;100.00
24486;BME280;13449;49.374;8.584;2023-07-29T02:28:50;99883.94;;;16.87;100.00
24486;BME280;13449;49.374;8.584;2023-07-29T02:31:20;99890.94;;;16.88;100.00
24486;BME280;13449;49.374;8.584;2023-07-29T02:33:47;99884.63;;;16.89;100.00
24486;BME280;13449;49.374;8.584;2023-07-29T02:36:16;99893.28;;;16.91;100.00
24486;BME280;13449;49.374;8.584;2023-07-29T02:38:43;99890.94;;;16.88;100.00
24486;BME280;13449;49.374;8.584;2023-07-29T02:41:10;99889.28;;;16.87;100.00
24486;BME280;13449;49.374;8.584;2023-07-29T02:43:38;99884.31;;;16.84;100.00
24486;BME280;13449;49.374;8.584;2023-07-29T02:46:08;99878.97;;;16.84;100.00
24486;BME280;13449;49.374;8.584;2023-07-29T02:48:37;99884.66;;;16.81;100.00
24486;BME280;13449;49.374;8.584;2023-07-29T02:51:06;99878.31;;;16.82;100.00
24486;BME280;13449;49.374;8.584;2023-07-29T02:53:32;99870.69;;;16.79;100.00
24486;BME280;13449;49.374;8.584;2023-07-29T02:55:59;99869.69;;;16.80;100.00
24486;BME280;13449;49.374;8.584;2023-07-29T02:58:25;99861.00;;;16.86;100.00
24486;BME280;13449;49.374;8.584;2023-07-29T03:00:52;99866.69;;;16.83;100.00
24486;BME280;13449;49.374;8.584;2023-07-29T03:03:24;99861.19;;;16.85;100.00
24486;BME280;13449;49.374;8.584;2023-07-29T03:05:58;99856.75;;;16.77;100.00
24486;BME280;13449;49.374;8.584;2023-07-29T03:08:24;99852.25;;;16.77;100.00
24486;BME280;13449;49.374;8.584;2023-07-29T03:10:53;99842.44;;;16.78;100.00
24486;BME280;13449;49.374;8.584;2023-07-29T03:13:20;99851.56;;;16.84;100.00
24486;BME280;13449;49.374;8.584;2023-07-29T03:15:46;99840.44;;;16.80;100.00
24486;BME280;13449;49.374;8.584;2023-07-29T03:18:13;99847.72;;;16.86;100.00
24486;BME280;13449;49.374;8.584;2023-07-29T03:20:39;99848.03;;;16.91;100.00
24486;BME280;13449;49.374;8.584;2023-07-29T03:23:06;99838.91;;;16.86;100.00
24486;BME280;13449;49.374;8.584;2023-07-29T03:25:33;99836.06;;;16.87;100.00
24486;BME280;13449;49.374;8.584;2023-07-29T03:28:00;99837.72;;;16.88;100.00
24486;BME280;13449;49.374;8.584;2023-07-29T03:30:26;99836.06;;;16.87;100.00
24486;BME280;13449;49.374;8.584;2023-07-29T03:32:53;99827.63;;;16.84;100.00
24486;BME280;13449;49.374;8.584;2023-07-29T03:35:19;99822.94;;;16.86;100.00
24486;BME280;13449;49.374;8.584;2023-07-29T03:37:48;99824.78;;;16.85;100.00
24486;BME280;13449;49.374;8.584;2023-07-29T03:40:14;99820.28;;;16.86;100.00
24486;BME280;13449;49.374;8.584;2023-07-29T03:42:41;99808.63;;;16.87;100.00
24486;BME280;13449;49.374;8.584;2023-07-29T03:45:08;99794.84;;;16.91;100.00
24486;BME280;13449;49.374;8.584;2023-07-29T03:47:37;99809.63;;;16.94;100.00
24486;BME280;13449;49.374;8.584;2023-07-29T03:50:03;99817.41;;;16.95;100.00
24486;BME280;13449;49.374;8.584;2023-07-29T03:52:30;99824.75;;;16.93;100.00
24486;BME280;13449;49.374;8.584;2023-07-29T03:54:57;99812.81;;;16.89;100.00
24486;BME280;13449;49.374;8.584;2023-07-29T03:57:26;99812.81;;;16.89;100.00
24486;BME280;13449;49.374;8.584;2023-07-29T03:59:55;99817.44;;;16.87;100.00
24486;BME280;13449;49.374;8.584;2023-07-29T04:02:21;99816.44;;;16.88;100.00
24486;BME280;13449;49.374;8.584;2023-07-29T04:04:48;99811.97;;;16.89;100.00
24486;BME280;13449;49.374;8.584;2023-07-29T04:07:14;99813.63;;;16.90;100.00
24486;BME280;13449;49.374;8.584;2023-07-29T04:09:41;99809.78;;;16.92;100.00
24486;BME280;13449;49.374;8.584;2023-07-29T04:12:09;99808.63;;;16.95;100.00
24486;BME280;13449;49.374;8.584;2023-07-29T04:14:36;99811.09;;;16.96;100.00
24486;BME280;13449;49.374;8.584;2023-07-29T04:17:05;99811.94;;;16.97;100.00
24486;BME280;13449;49.374;8.584;2023-07-29T04:19:32;99808.44;;;16.96;100.00
24486;BME280;13449;49.374;8.584;2023-07-29T04:21:58;99809.09;;;16.98;100.00
24486;BME280;13449;49.374;8.584;2023-07-29T04:24:25;99801.09;;;16.98;100.00
24486;BME280;13449;49.374;8.584;2023-07-29T04:26:54;99808.09;;;16.99;100.00
24486;BME280;13449;49.374;8.584;2023-07-29T04:29:23;99815.06;;;17.00;100.00
24486;BME280;13449;49.374;8.584;2023-07-29T04:31:50;99814.06;;;17.01;100.00
24486;BME280;13449;49.374;8.584;2023-07-29T04:34:17;99837.00;;;17.02;100.00
24486;BME280;13449;49.374;8.584;2023-07-29T04:36:45;99833.50;;;17.02;100.00
24486;BME280;13449;49.374;8.584;2023-07-29T04:39:11;99839.47;;;17.04;100.00
24486;BME280;13449;49.374;8.584;2023-07-29T04:41:38;99843.00;;;17.04;100.00
24486;BME280;13449;49.374;8.584;2023-07-29T04:44:07;99858.59;;;17.08;100.00
24486;BME280;13449;49.374;8.584;2023-07-29T04:46:33;99856.59;;;17.10;100.00
24486;BME280;13449;49.374;8.584;2023-07-29T04:49:00;99844.94;;;17.11;100.00
24486;BME280;13449;49.374;8.584;2023-07-29T04:51:27;99834.97;;;17.13;100.00
24486;BME280;13449;49.374;8.584;2023-07-29T04:53:53;99847.25;;;17.14;100.00
24486;BME280;13449;49.374;8.584;2023-07-29T04:56:20;99858.72;;;17.14;100.00
24486;BME280;13449;49.374;8.584;2023-07-29T04:58:46;99852.22;;;17.17;100.00
24486;BME280;13449;49.374;8.584;2023-07-29T05:01:13;99849.75;;;17.15;100.00
24486;BME280;13449;49.374;8.584;2023-07-29T05:03:39;99871.84;;;17.16;100.00
24486;BME280;13449;49.374;8.584;2023-07-29T05:06:06;99881.16;;;17.20;100.00
24486;BME280;13449;49.374;8.584;2023-07-29T05:08:32;99841.72;;;17.23;100.00
24486;BME280;13449;49.374;8.584;2023-07-29T05:10:59;99844.22;;;17.25;100.00
24486;BME280;13449;49.374;8.584;2023-07-29T05:13:25;99847.53;;;17.27;100.00
24486;BME280;13449;49.374;8.584;2023-07-29T05:15:52;99850.00;;;17.28;100.00
24486;BME280;13449;49.374;8.584;2023-07-29T05:18:19;99862.94;;;17.31;100.00
24486;BME280;13449;49.374;8.584;2023-07-29T05:20:48;99860.94;;;17.33;100.00
24486;BME280;13449;49.374;8.584;2023-07-29T05:23:14;99834.13;;;17.35;100.00
24486;BME280;13449;49.374;8.584;2023-07-29T05:25:41;99856.13;;;17.37;100.00
24486;BME280;13449;49.374;8.584;2023-07-29T05:28:07;99851.44;;;17.39;100.00
24486;BME280;13449;49.374;8.584;2023-07-29T05:30:34;99875.88;;;17.43;100.00
24486;BME280;13449;49.374;8.584;2023-07-29T05:33:04;99878.34;;;17.44;100.00
24486;BME280;13449;49.374;8.584;2023-07-29T05:35:33;99873.69;;;17.46;100.00
24486;BME280;13449;49.374;8.584;2023-07-29T05:38:05;99854.88;;;17.48;100.00
24486;BME280;13449;49.374;8.584;2023-07-29T05:40:36;99863.84;;;17.47;100.00
24486;BME280;13449;49.374;8.584;2023-07-29T05:43:02;99867.53;;;17.46;100.00
24486;BME280;13449;49.374;8.584;2023-07-29T05:45:29;99879.00;;;17.46;100.00
24486;BME280;13449;49.374;8.584;2023-07-29T05:47:57;99867.34;;;17.47;100.00
24486;BME280;13449;49.374;8.584;2023-07-29T05:50:23;99877.00;;;17.48;100.00
24486;BME280;13449;49.374;8.584;2023-07-29T05:52:52;99876.63;;;17.51;100.00
24486;BME280;13449;49.374;8.584;2023-07-29T05:55:18;99874.66;;;17.53;100.00
24486;BME280;13449;49.374;8.584;2023-07-29T05:57:47;99879.63;;;17.56;100.00
24486;BME280;13449;49.374;8.584;2023-07-29T06:00:14;99873.28;;;17.57;100.00
24486;BME280;13449;49.374;8.584;2023-07-29T06:02:41;99882.56;;;17.61;100.00
24486;BME280;13449;49.374;8.584;2023-07-29T06:05:07;99878.53;;;17.65;100.00
24486;BME280;13449;49.374;8.584;2023-07-29T06:07:36;99876.03;;;17.72;100.00
24486;BME280;13449;49.374;8.584;2023-07-29T06:10:05;99872.66;;;17.78;100.00
24486;BME280;13449;49.374;8.584;2023-07-29T06:12:32;99861.78;;;17.88;100.00
24486;BME280;13449;49.374;8.584;2023-07-29T06:14:58;99855.91;;;17.92;100.00
24486;BME280;13449;49.374;8.584;2023-07-29T06:17:27;99847.84;;;18.01;100.00
24486;BME280;13449;49.374;8.584;2023-07-29T06:19:55;99854.28;;;18.06;100.00
24486;BME280;13449;49.374;8.584;2023-07-29T06:22:22;99854.56;;;18.11;100.00
24486;BME280;13449;49.374;8.584;2023-07-29T06:24:48;99852.00;;;18.18;100.00
24486;BME280;13449;49.374;8.584;2023-07-29T06:27:15;99856.22;;;18.27;100.00
24486;BME280;13449;49.374;8.584;2023-07-29T06:29:41;99861.88;;;18.32;100.00
24486;BME280;13449;49.374;8.584;2023-07-29T06:32:08;99875.66;;;18.36;100.00
24486;BME280;13449;49.374;8.584;2023-07-29T06:34:34;99869.69;;;18.34;100.00
24486;BME280;13449;49.374;8.584;2023-07-29T06:37:01;99868.50;;;18.36;100.00
24486;BME280;13449;49.374;8.584;2023-07-29T06:39:28;99874.66;;;18.37;100.00
24486;BME280;13449;49.374;8.584;2023-07-29T06:41:54;99877.97;;;18.39;100.00
24486;BME280;13449;49.374;8.584;2023-07-29T06:44:20;99889.25;;;18.41;100.00
24486;BME280;13449;49.374;8.584;2023-07-29T06:46:47;99891.38;;;18.45;100.00
24486;BME280;13449;49.374;8.584;2023-07-29T06:49:14;99886.53;;;18.49;100.00
24486;BME280;13449;49.374;8.584;2023-07-29T06:51:40;99883.13;;;18.55;100.00
24486;BME280;13449;49.374;8.584;2023-07-29T06:54:09;99891.41;;;18.60;100.00
24486;BME280;13449;49.374;8.584;2023-07-29T06:56:35;99876.06;;;18.62;100.00
24486;BME280;13449;49.374;8.584;2023-07-29T06:59:02;99880.41;;;18.63;100.00
24486;BME280;13449;49.374;8.584;2023-07-29T07:01:29;99888.41;;;18.63;100.00
24486;BME280;13449;49.374;8.584;2023-07-29T07:03:55;99891.19;;;18.62;100.00
24486;BME280;13449;49.374;8.584;2023-07-29T07:06:26;99885.63;;;18.71;100.00
24486;BME280;13449;49.374;8.584;2023-07-29T07:08:55;99892.75;;;18.79;100.00
24486;BME280;13449;49.374;8.584;2023-07-29T07:11:27;99887.56;;;18.92;100.00
24486;BME280;13449;49.374;8.584;2023-07-29T07:13:53;99880.22;;;18.94;100.00
24486;BME280;13449;49.374;8.584;2023-07-29T07:16:20;99887.66;;;18.99;100.00
24486;BME280;13449;49.374;8.584;2023-07-29T07:18:46;99890.75;;;19.17;100.00
24486;BME280;13449;49.374;8.584;2023-07-29T07:21:13;99892.66;;;19.23;100.00
24486;BME280;13449;49.374;8.584;2023-07-29T07:23:41;99883.94;;;19.51;100.00
24486;BME280;13449;49.374;8.584;2023-07-29T07:26:08;99877.59;;;19.52;100.00
24486;BME280;13449;49.374;8.584;2023-07-29T07:28:34;99880.38;;;19.80;100.00
24486;BME280;13449;49.374;8.584;2023-07-29T07:31:01;99879.88;;;20.19;100.00
24486;BME280;13449;49.374;8.584;2023-07-29T07:33:28;99875.53;;;20.39;100.00
24486;BME280;13449;49.374;8.584;2023-07-29T07:35:54;99876.53;;;20.38;100.00
24486;BME280;13449;49.374;8.584;2023-07-29T07:38:23;99882.03;;;20.30;100.00
24486;BME280;13449;49.374;8.584;2023-07-29T07:40:56;99882.25;;;20.35;100.00
24486;BME280;13449;49.374;8.584;2023-07-29T07:43:23;99894.03;;;20.41;100.00
24486;BME280;13449;49.374;8.584;2023-07-29T07:45:51;99895.63;;;20.35;100.00
24486;BME280;13449;49.374;8.584;2023-07-29T07:48:20;99891.47;;;20.26;100.00
24486;BME280;13449;49.374;8.584;2023-07-29T07:50:46;99889.91;;;20.10;100.00
24486;BME280;13449;49.374;8.584;2023-07-29T07:53:13;99894.09;;;19.98;100.00
24486;BME280;13449;49.374;8.584;2023-07-29T07:55:41;99896.31;;;20.16;100.00
24486;BME280;13449;49.374;8.584;2023-07-29T07:58:10;99890.34;;;20.14;100.00
24486;BME280;13449;49.374;8.584;2023-07-29T08:00:36;99898.63;;;19.97;100.00
24486;BME280;13449;49.374;8.584;2023-07-29T08:03:03;99888.94;;;19.96;100.00
24486;BME280;13449;49.374;8.584;2023-07-29T08:05:29;99897.28;;;19.87;100.00
24486;BME280;13449;49.374;8.584;2023-07-29T08:07:56;99903.09;;;19.90;100.00
24486;BME280;13449;49.374;8.584;2023-07-29T08:10:24;99920.59;;;19.93;100.00
24486;BME280;13449;49.374;8.584;2023-07-29T08:12:50;99913.59;;;19.92;100.00
24486;BME280;13449;49.374;8.584;2023-07-29T08:15:17;99913.16;;;19.88;100.00
24486;BME280;13449;49.374;8.584;2023-07-29T08:17:43;99914.63;;;19.91;100.00
24486;BME280;13449;49.374;8.584;2023-07-29T08:20:12;99907.91;;;20.01;100.00
24486;BME280;13449;49.374;8.584;2023-07-29T08:22:39;99906.78;;;19.89;100.00
24486;BME280;13449;49.374;8.584;2023-07-29T08:25:08;99902.63;;;19.87;100.00
24486;BME280;13449;49.374;8.584;2023-07-29T08:27:37;99897.81;;;19.97;100.00
24486;BME280;13449;49.374;8.584;2023-07-29T08:30:04;99897.72;;;20.12;100.00
24486;BME280;13449;49.374;8.584;2023-07-29T08:32:31;99897.47;;;20.07;100.00
24486;BME280;13449;49.374;8.584;2023-07-29T08:34:57;99906.72;;;20.04;100.00
24486;BME280;13449;49.374;8.584;2023-07-29T08:37:26;99914.78;;;20.11;100.00
24486;BME280;13449;49.374;8.584;2023-07-29T08:39:53;99907.63;;;20.18;100.00
24486;BME280;13449;49.374;8.584;2023-07-29T08:42:29;99913.34;;;20.08;100.00
24486;BME280;13449;49.374;8.584;2023-07-29T08:45:06;99921.00;;;20.18;100.00
24486;BME280;13449;49.374;8.584;2023-07-29T08:47:33;99917.06;;;20.14;100.00
24486;BME280;13449;49.374;8.584;2023-07-29T08:50:01;99910.38;;;20.24;100.00
24486;BME280;13449;49.374;8.584;2023-07-29T08:52:29;99917.41;;;20.32;100.00
24486;BME280;13449;49.374;8.584;2023-07-29T08:55:01;99920.38;;;20.37;100.00
24486;BME280;13449;49.374;8.584;2023-07-29T08:57:30;99928.50;;;20.29;100.00
24486;BME280;13449;49.374;8.584;2023-07-29T09:00:00;99925.09;;;20.14;100.00
24486;BME280;13449;49.374;8.584;2023-07-29T09:02:27;99928.78;;;20.13;100.00
24486;BME280;13449;49.374;8.584;2023-07-29T09:04:55;99929.69;;;20.20;100.00
24486;BME280;13449;49.374;8.584;2023-07-29T09:07:24;99931.34;;;20.21;100.00
24486;BME280;13449;49.374;8.584;2023-07-29T09:09:51;99941.50;;;20.32;100.00
24486;BME280;13449;49.374;8.584;2023-07-29T09:12:18;99929.09;;;20.74;100.00
24486;BME280;13449;49.374;8.584;2023-07-29T09:14:45;99910.00;;;20.83;100.00
24486;BME280;13449;49.374;8.584;2023-07-29T09:17:14;99911.34;;;21.07;100.00
24486;BME280;13449;49.374;8.584;2023-07-29T09:19:41;99915.41;;;21.31;100.00
24486;BME280;13449;49.374;8.584;2023-07-29T09:22:20;99907.78;;;21.35;100.00
24486;BME280;13449;49.374;8.584;2023-07-29T09:24:47;99921.50;;;21.66;100.00
24486;BME280;13449;49.374;8.584;2023-07-29T09:27:26;99918.19;;;21.77;100.00
24486;BME280;13449;49.374;8.584;2023-07-29T09:29:54;99902.31;;;21.69;100.00
24486;BME280;13449;49.374;8.584;2023-07-29T09:32:25;99891.22;;;21.86;100.00
24486;BME280;13449;49.374;8.584;2023-07-29T09:34:51;99891.41;;;21.91;100.00
24486;BME280;13449;49.374;8.584;2023-07-29T09:37:21;99874.50;;;22.03;100.00
24486;BME280;13449;49.374;8.584;2023-07-29T09:39:49;99883.84;;;22.14;100.00
24486;BME280;13449;49.374;8.584;2023-07-29T09:42:20;99886.50;;;22.14;100.00
24486;BME280;13449;49.374;8.584;2023-07-29T09:44:49;99888.34;;;22.33;100.00
24486;BME280;13449;49.374;8.584;2023-07-29T09:47:20;99900.50;;;22.62;100.00
24486;BME280;13449;49.374;8.584;2023-07-29T09:49:47;99895.13;;;22.62;100.00
24486;BME280;13449;49.374;8.584;2023-07-29T09:52:19;99893.47;;;22.55;100.00
24486;BME280;13449;49.374;8.584;2023-07-29T09:54:46;99884.22;;;22.51;98.52
24486;BME280;13449;49.374;8.584;2023-07-29T09:57:14;99890.63;;;22.36;98.01
24486;BME280;13449;49.374;8.584;2023-07-29T09:59:42;99881.34;;;22.19;96.53
24486;BME280;13449;49.374;8.584;2023-07-29T10:02:13;99879.69;;;22.05;96.40
24486;BME280;13449;49.374;8.584;2023-07-29T10:04:42;99886.06;;;21.97;93.90
24486;BME280;13449;49.374;8.584;2023-07-29T10:07:15;99896.41;;;22.20;95.55
24486;BME280;13449;49.374;8.584;2023-07-29T10:09:44;99894.94;;;22.24;95.86
24486;BME280;13449;49.374;8.584;2023-07-29T10:12:11;99884.03;;;22.19;95.56
24486;BME280;13449;49.374;8.584;2023-07-29T10:14:38;99896.81;;;22.24;94.74
24486;BME280;13449;49.374;8.584;2023-07-29T10:17:05;99896.59;;;22.38;93.81
24486;BME280;13449;49.374;8.584;2023-07-29T10:19:35;99882.56;;;22.23;91.84
24486;BME280;13449;49.374;8.584;2023-07-29T10:22:03;99894.34;;;22.09;93.19
24486;BME280;13449;49.374;8.584;2023-07-29T10:24:32;99894.34;;;22.09;93.41
24486;BME280;13449;49.374;8.584;2023-07-29T10:27:00;99883.22;;;22.25;93.35
24486;BME280;13449;49.374;8.584;2023-07-29T10:29:31;99893.69;;;22.40;94.27
24486;BME280;13449;49.374;8.584;2023-07-29T10:32:02;99894.94;;;22.37;94.60
24486;BME280;13449;49.374;8.584;2023-07-29T10:34:31;99887.31;;;22.21;92.02
24486;BME280;13449;49.374;8.584;2023-07-29T10:36:58;99875.31;;;21.91;89.76
24486;BME280;13449;49.374;8.584;2023-07-29T10:39:25;99895.53;;;21.87;92.58
24486;BME280;13449;49.374;8.584;2023-07-29T10:42:00;99896.00;;;22.23;92.05
24486;BME280;13449;49.374;8.584;2023-07-29T10:49:59;99883.94;;;22.92;89.25
24486;BME280;13449;49.374;8.584;2023-07-29T10:55:23;99885.06;;;23.16;88.10
24486;BME280;13449;49.374;8.584;2023-07-29T10:57:54;99868.91;;;23.29;86.91
24486;BME280;13449;49.374;8.584;2023-07-29T11:00:31;99868.88;;;23.36;88.46
24486;BME280;13449;49.374;8.584;2023-07-29T11:03:08;99864.50;;;23.41;87.41
24486;BME280;13449;49.374;8.584;2023-07-29T11:05:48;99855.94;;;23.57;85.12
24486;BME280;13449;49.374;8.584;2023-07-29T11:08:30;99856.78;;;23.58;83.59
24486;BME280;13449;49.374;8.584;2023-07-29T11:11:07;99868.28;;;23.65;86.72
24486;BME280;13449;49.374;8.584;2023-07-29T11:13:38;99865.88;;;23.50;84.83
24486;BME280;13449;49.374;8.584;2023-07-29T11:16:05;99863.78;;;23.59;83.19
24486;BME280;13449;49.374;8.584;2023-07-29T11:18:34;99873.19;;;23.75;85.09
24486;BME280;13449;49.374;8.584;2023-07-29T11:21:02;99866.84;;;23.94;85.29
24486;BME280;13449;49.374;8.584;2023-07-29T11:23:33;99857.06;;;24.25;82.04
24486;BME280;13449;49.374;8.584;2023-07-29T11:26:00;99864.31;;;24.31;82.45
24486;BME280;13449;49.374;8.584;2023-07-29T11:28:30;99855.66;;;24.47;80.46
24486;BME280;13449;49.374;8.584;2023-07-29T11:30:57;99841.66;;;24.38;78.19
24486;BME280;13449;49.374;8.584;2023-07-29T11:33:25;99845.66;;;24.04;76.83
24486;BME280;13449;49.374;8.584;2023-07-29T11:35:52;99859.28;;;24.09;80.63
24486;BME280;13449;49.374;8.584;2023-07-29T11:38:20;99852.63;;;24.12;79.02
24486;BME280;13449;49.374;8.584;2023-07-29T11:41:03;99835.53;;;24.31;75.45
24486;BME280;13449;49.374;8.584;2023-07-29T11:43:29;99837.16;;;24.32;76.79
24486;BME280;13449;49.374;8.584;2023-07-29T11:45:56;99818.84;;;24.41;74.08
24486;BME280;13449;49.374;8.584;2023-07-29T11:48:31;99819.22;;;24.44;74.79
24486;BME280;13449;49.374;8.584;2023-07-29T11:50:58;99805.97;;;24.43;71.53
24486;BME280;13449;49.374;8.584;2023-07-29T11:53:28;99833.81;;;24.37;76.46
24486;BME280;13449;49.374;8.584;2023-07-29T11:55:56;99805.34;;;24.47;72.09
24486;BME280;13449;49.374;8.584;2023-07-29T11:58:26;99809.50;;;24.43;72.63
24486;BME280;13449;49.374;8.584;2023-07-29T12:00:52;99811.38;;;24.43;73.54
24486;BME280;13449;49.374;8.584;2023-07-29T12:03:19;99826.25;;;24.45;74.38
24486;BME280;13449;49.374;8.584;2023-07-29T12:05:47;99802.25;;;24.44;69.03
24486;BME280;13449;49.374;8.584;2023-07-29T12:08:15;99805.69;;;24.51;70.63
24486;BME280;13449;49.374;8.584;2023-07-29T12:10:42;99812.88;;;24.57;71.18
24486;BME280;13449;49.374;8.584;2023-07-29T12:13:08;99820.34;;;24.55;72.73
24486;BME280;13449;49.374;8.584;2023-07-29T12:15:38;99811.75;;;24.83;71.13
24486;BME280;13449;49.374;8.584;2023-07-29T12:18:05;99827.97;;;24.76;72.74
24486;BME280;13449;49.374;8.584;2023-07-29T12:20:31;99812.13;;;24.50;71.40
24486;BME280;13449;49.374;8.584;2023-07-29T12:23:00;99831.44;;;24.65;75.81
24486;BME280;13449;49.374;8.584;2023-07-29T12:25:32;99818.41;;;24.81;72.24
24486;BME280;13449;49.374;8.584;2023-07-29T12:28:06;99806.59;;;25.00;71.71
24486;BME280;13449;49.374;8.584;2023-07-29T12:30:33;99815.75;;;24.92;70.96
24486;BME280;13449;49.374;8.584;2023-07-29T12:33:05;99814.66;;;24.82;70.45
24486;BME280;13449;49.374;8.584;2023-07-29T12:35:35;99822.97;;;24.80;70.86
24486;BME280;13449;49.374;8.584;2023-07-29T12:38:02;99826.03;;;24.84;71.06
24486;BME280;13449;49.374;8.584;2023-07-29T12:40:29;99830.22;;;24.79;71.49
24486;BME280;13449;49.374;8.584;2023-07-29T12:42:56;99832.16;;;24.91;71.60
24486;BME280;13449;49.374;8.584;2023-07-29T12:45:22;99821.91;;;24.99;70.47
24486;BME280;13449;49.374;8.584;2023-07-29T12:47:52;99826.03;;;25.02;71.52
24486;BME280;13449;49.374;8.584;2023-07-29T12:50:19;99805.97;;;24.98;68.56
24486;BME280;13449;49.374;8.584;2023-07-29T12:52:45;99811.50;;;25.03;69.10
24486;BME280;13449;49.374;8.584;2023-07-29T12:55:12;99796.09;;;25.10;66.94
24486;BME280;13449;49.374;8.584;2023-07-29T12:57:42;99818.19;;;25.30;70.69
24486;BME280;13449;49.374;8.584;2023-07-29T13:00:10;99809.03;;;25.61;69.25
24486;BME280;13449;49.374;8.584;2023-07-29T13:02:37;99798.28;;;25.73;68.21
24486;BME280;13449;49.374;8.584;2023-07-29T13:05:09;99798.28;;;25.85;66.64
24486;BME280;13449;49.374;8.584;2023-07-29T13:07:40;99792.75;;;25.68;63.55
24486;BME280;13449;49.374;8.584;2023-07-29T13:10:08;99811.47;;;25.63;69.13
24486;BME280;13449;49.374;8.584;2023-07-29T13:12:38;99786.81;;;25.48;64.49